createdAt,value
2019-04-05T00:01:27.301Z,17.87
2019-04-05T00:03:55.527Z,19.92
2019-04-05T00:06:23.763Z,18.67
2019-04-05T00:08:51.992Z,19.70
2019-04-05T00:11:20.406Z,18.80
2019-04-05T00:13:48.622Z,22.37
2019-04-05T00:16:18.085Z,18.90
2019-04-05T00:18:46.322Z,18.80
2019-04-05T00:21:14.548Z,20.00
2019-04-05T00:23:42.780Z,19.45
2019-04-05T00:26:11.230Z,19.40
2019-04-05T00:28:39.556Z,20.43
2019-04-05T00:31:07.821Z,20.70
2019-04-05T00:33:36.072Z,19.80
2019-04-05T00:36:04.301Z,21.73
2019-04-05T00:38:32.550Z,21.75
2019-04-05T00:41:00.784Z,20.17
2019-04-05T00:43:29.012Z,20.37
2019-04-05T00:45:57.259Z,21.93
2019-04-05T00:48:25.507Z,21.33
2019-04-05T00:50:53.717Z,21.40
2019-04-05T00:53:21.957Z,22.45
2019-04-05T00:55:51.520Z,23.10
2019-04-05T00:58:19.747Z,20.70
2019-04-05T01:00:48.006Z,21.33
2019-04-05T01:03:16.244Z,21.93
2019-04-05T01:05:44.465Z,23.25
2019-04-05T01:08:12.712Z,21.87
2019-04-05T01:10:46.367Z,23.52
2019-04-05T01:13:14.627Z,24.18
2019-04-05T01:15:47.659Z,22.77
2019-04-05T01:18:15.880Z,23.62
2019-04-05T01:20:44.122Z,22.15
2019-04-05T01:23:12.353Z,22.62
2019-04-05T01:25:40.749Z,24.40
2019-04-05T01:28:08.973Z,22.93
2019-04-05T01:30:37.223Z,26.00
2019-04-05T01:33:05.471Z,23.85
2019-04-05T01:35:33.694Z,21.87
2019-04-05T01:38:02.272Z,24.67
2019-04-05T01:40:30.509Z,22.20
2019-04-05T01:42:58.738Z,21.55
2019-04-05T01:45:27.001Z,20.30
2019-04-05T01:48:00.971Z,21.77
2019-04-05T01:52:56.774Z,22.85
2019-04-05T01:55:24.990Z,22.32
2019-04-05T01:57:53.233Z,22.10
2019-04-05T02:00:21.457Z,22.27
2019-04-05T02:02:49.701Z,21.30
2019-04-05T02:05:17.932Z,25.02
2019-04-05T02:07:46.185Z,21.02
2019-04-05T02:10:14.421Z,24.35
2019-04-05T02:12:42.657Z,22.60
2019-04-05T02:15:12.522Z,24.57
2019-04-05T02:17:40.754Z,21.80
2019-04-05T02:20:09.000Z,23.80
2019-04-05T02:22:37.226Z,23.47
2019-04-05T02:25:06.129Z,23.92
2019-04-05T02:27:34.356Z,24.05
2019-04-05T02:30:02.620Z,22.32
2019-04-05T02:32:30.893Z,21.57
2019-04-05T02:34:59.142Z,22.25
2019-04-05T02:37:27.408Z,23.27
2019-04-05T02:39:55.631Z,24.20
2019-04-05T02:42:23.862Z,24.40
2019-04-05T02:44:52.090Z,23.45
2019-04-05T02:47:20.354Z,23.87
2019-04-05T02:49:48.650Z,23.18
2019-04-05T02:52:16.882Z,25.32
2019-04-05T02:54:45.204Z,23.57
2019-04-05T02:57:13.454Z,23.70
2019-04-05T02:59:41.739Z,23.77
2019-04-05T03:02:09.997Z,25.05
2019-04-05T03:04:38.238Z,26.73
2019-04-05T03:07:06.542Z,25.17
2019-04-05T03:09:34.774Z,25.75
2019-04-05T03:12:03.014Z,25.72
2019-04-05T03:14:31.273Z,23.45
2019-04-05T03:16:59.550Z,24.75
2019-04-05T03:19:29.637Z,25.00
2019-04-05T03:22:00.992Z,27.32
2019-04-05T03:24:29.691Z,25.05
2019-04-05T03:27:02.493Z,24.75
2019-04-05T03:29:31.060Z,26.30
2019-04-05T03:31:59.361Z,29.27
2019-04-05T03:34:27.717Z,25.12
2019-04-05T03:36:56.009Z,27.48
2019-04-05T03:39:24.255Z,28.15
2019-04-05T03:41:56.621Z,28.67
2019-04-05T03:44:24.868Z,27.48
2019-04-05T03:46:56.785Z,28.62
2019-04-05T03:49:23.176Z,26.95
2019-04-05T03:51:51.422Z,26.40
2019-04-05T03:54:19.651Z,26.05
2019-04-05T03:56:47.998Z,25.02
2019-04-05T03:59:16.230Z,26.60
2019-04-05T04:01:44.561Z,29.07
2019-04-05T04:04:12.886Z,27.42
2019-04-05T04:06:41.192Z,30.30
2019-04-05T04:09:09.471Z,27.45
2019-04-05T04:11:37.738Z,27.00
2019-04-05T04:14:06.149Z,27.80
2019-04-05T04:16:34.374Z,25.50
2019-04-05T04:19:02.675Z,28.25
2019-04-05T04:21:36.542Z,26.50
2019-04-05T04:24:04.758Z,28.25
2019-04-05T04:26:32.995Z,29.10
2019-04-05T04:29:01.237Z,27.87
2019-04-05T04:31:29.580Z,31.57
2019-04-05T04:33:58.095Z,29.90
2019-04-05T04:36:26.452Z,27.25
2019-04-05T04:38:55.056Z,28.77
2019-04-05T04:41:23.296Z,28.38
2019-04-05T04:43:51.508Z,29.72
2019-04-05T04:46:19.763Z,35.45
2019-04-05T04:48:48.377Z,33.80
2019-04-05T04:51:17.138Z,28.45
2019-04-05T04:53:45.377Z,28.90
2019-04-05T04:56:13.612Z,27.37
2019-04-05T04:58:41.857Z,30.30
2019-04-05T05:01:10.078Z,33.50
2019-04-05T05:03:38.314Z,30.27
2019-04-05T05:06:06.561Z,34.13
2019-04-05T05:08:34.780Z,41.08
2019-04-05T05:11:13.871Z,32.95
2019-04-05T05:13:33.001Z,36.60
2019-04-05T05:16:01.312Z,34.27
2019-04-05T05:18:29.737Z,35.35
2019-04-05T05:20:57.993Z,40.10
2019-04-05T05:23:26.252Z,34.60
2019-04-05T05:25:54.539Z,36.93
2019-04-05T05:28:22.914Z,29.40
2019-04-05T05:30:51.173Z,33.95
2019-04-05T05:33:19.485Z,36.10
2019-04-05T05:35:47.803Z,36.70
2019-04-05T05:38:16.039Z,39.05
2019-04-05T05:40:44.334Z,35.60
2019-04-05T05:43:12.767Z,34.55
2019-04-05T05:45:41.514Z,34.13
2019-04-05T05:48:09.785Z,36.15
2019-04-05T05:50:41.014Z,37.80
2019-04-05T05:53:09.252Z,36.58
2019-04-05T05:55:37.652Z,39.92
2019-04-05T05:58:05.925Z,41.73
2019-04-05T06:00:35.082Z,37.67
2019-04-05T06:03:08.690Z,39.65
2019-04-05T06:05:36.583Z,37.07
2019-04-05T06:08:04.857Z,39.70
2019-04-05T06:10:33.144Z,40.60
2019-04-05T06:13:01.388Z,48.48
2019-04-05T06:15:29.604Z,40.98
2019-04-05T06:18:04.728Z,41.08
2019-04-05T06:20:27.788Z,40.45
2019-04-05T06:22:56.025Z,36.93
2019-04-05T06:25:24.429Z,43.80
2019-04-05T06:27:52.672Z,44.13
2019-04-05T06:30:21.245Z,40.40
2019-04-05T06:32:49.509Z,43.87
2019-04-05T06:35:17.726Z,42.35
2019-04-05T06:37:46.055Z,41.42
2019-04-05T06:40:14.418Z,41.42
2019-04-05T06:42:42.708Z,44.73
2019-04-05T06:45:10.937Z,43.25
2019-04-05T06:47:39.239Z,49.08
2019-04-05T06:50:07.498Z,45.10
2019-04-05T06:52:35.785Z,51.83
2019-04-05T06:55:05.568Z,48.48
2019-04-05T06:57:33.822Z,48.83
2019-04-05T07:00:02.057Z,46.90
2019-04-05T07:02:30.302Z,41.50
2019-04-05T07:04:58.563Z,50.65
2019-04-05T07:07:26.798Z,47.43
2019-04-05T07:09:55.095Z,45.78
2019-04-05T07:12:23.305Z,41.60
2019-04-05T07:14:51.529Z,41.65
2019-04-05T07:17:19.807Z,45.28
2019-04-05T07:19:48.096Z,46.00
2019-04-05T07:22:16.413Z,40.70
2019-04-05T07:24:44.649Z,44.05
2019-04-05T07:27:12.882Z,47.73
2019-04-05T07:29:41.111Z,43.38
2019-04-05T07:32:09.367Z,43.48
2019-04-05T07:34:37.591Z,41.77
2019-04-05T07:37:05.820Z,45.63
2019-04-05T07:39:34.136Z,46.80
2019-04-05T07:42:02.380Z,40.33
2019-04-05T07:44:30.635Z,46.13
2019-04-05T07:46:59.038Z,45.33
2019-04-05T07:49:27.282Z,45.70
2019-04-05T07:51:55.525Z,37.60
2019-04-05T07:54:23.790Z,42.48
2019-04-05T07:56:52.041Z,37.48
2019-04-05T07:59:21.060Z,36.45
2019-04-05T08:01:49.470Z,41.08
2019-04-05T08:04:17.692Z,40.85
2019-04-05T08:06:45.917Z,40.33
2019-04-05T08:09:14.180Z,34.60
2019-04-05T08:11:42.496Z,37.33
2019-04-05T08:14:10.743Z,34.15
2019-04-05T08:16:38.969Z,32.50
2019-04-05T08:19:07.221Z,35.08
2019-04-05T08:21:35.451Z,34.45
2019-04-05T08:24:03.678Z,37.83
2019-04-05T08:26:31.923Z,32.75
2019-04-05T08:29:00.160Z,34.67
2019-04-05T08:31:28.410Z,37.60
2019-04-05T08:33:56.757Z,33.00
2019-04-05T08:36:25.032Z,40.33
2019-04-05T08:38:53.301Z,30.75
2019-04-05T08:41:21.549Z,31.35
2019-04-05T08:43:49.784Z,32.23
2019-04-05T08:46:18.036Z,32.90
2019-04-05T08:48:46.327Z,32.10
2019-04-05T08:51:14.552Z,29.10
2019-04-05T08:53:42.799Z,32.53
2019-04-05T08:56:11.020Z,30.88
2019-04-05T08:58:39.261Z,30.92
2019-04-05T09:01:07.493Z,28.62
2019-04-05T09:03:35.729Z,29.48
2019-04-05T09:06:03.971Z,28.62
2019-04-05T09:08:32.223Z,29.32
2019-04-05T09:11:00.447Z,29.18
2019-04-05T09:13:28.681Z,31.62
2019-04-05T09:15:56.915Z,30.40
2019-04-05T09:18:25.136Z,29.98
2019-04-05T09:20:53.397Z,29.30
2019-04-05T09:23:21.637Z,28.90
2019-04-05T09:25:49.872Z,28.75
2019-04-05T09:28:18.183Z,29.60
2019-04-05T09:30:46.433Z,28.02
2019-04-05T09:33:14.643Z,27.95
2019-04-05T09:35:42.880Z,27.60
2019-04-05T09:38:11.112Z,26.60
2019-04-05T09:40:39.417Z,27.10
2019-04-05T09:43:07.658Z,28.05
2019-04-05T09:45:35.903Z,29.07
2019-04-05T09:48:04.179Z,32.90
2019-04-05T09:50:32.404Z,30.05
2019-04-05T09:53:00.625Z,25.35
2019-04-05T09:55:28.901Z,27.25
2019-04-05T09:57:57.200Z,27.62
2019-04-05T10:00:27.086Z,26.37
2019-04-05T10:02:55.327Z,25.52
2019-04-05T10:05:23.560Z,25.20
2019-04-05T10:07:55.355Z,27.70
2019-04-05T10:10:21.776Z,26.70
2019-04-05T10:12:50.000Z,27.77
2019-04-05T10:15:18.233Z,25.17
2019-04-05T10:17:46.484Z,24.43
2019-04-05T10:20:14.733Z,25.17
2019-04-05T10:22:42.980Z,26.82
2019-04-05T10:25:11.216Z,25.60
2019-04-05T10:27:39.465Z,25.88
2019-04-05T10:30:12.043Z,24.10
2019-04-05T10:32:40.272Z,26.27
2019-04-05T10:35:08.694Z,31.85
2019-04-05T10:37:37.007Z,26.87
2019-04-05T10:40:06.587Z,29.80
2019-04-05T10:42:35.563Z,31.57
2019-04-05T10:45:05.485Z,26.73
2019-04-05T10:47:33.722Z,29.63
2019-04-05T10:50:03.308Z,27.37
2019-04-05T10:52:32.067Z,30.20
2019-04-05T10:55:00.289Z,28.85
2019-04-05T10:57:28.536Z,26.33
2019-04-05T10:59:56.750Z,30.20
2019-04-05T11:02:25.011Z,27.93
2019-04-05T11:04:53.271Z,29.63
2019-04-05T11:07:21.519Z,28.80
2019-04-05T11:09:49.740Z,28.42
2019-04-05T11:12:17.968Z,31.17
2019-04-05T11:14:46.241Z,30.90
2019-04-05T11:17:14.676Z,31.27
2019-04-05T11:19:42.933Z,31.02
2019-04-05T11:22:11.185Z,27.73
2019-04-05T11:24:39.421Z,28.25
2019-04-05T11:27:07.654Z,29.90
2019-04-05T11:29:35.889Z,31.90
2019-04-05T11:32:04.363Z,26.00
2019-04-05T11:34:32.623Z,27.48
2019-04-05T11:37:02.770Z,28.47
2019-04-05T11:39:30.980Z,28.32
2019-04-05T11:41:59.206Z,27.93
2019-04-05T11:44:28.017Z,29.82
2019-04-05T11:46:56.255Z,27.93
2019-04-05T11:49:24.648Z,27.65
2019-04-05T11:51:53.204Z,26.90
2019-04-05T11:54:21.494Z,27.50
2019-04-05T11:56:49.733Z,25.45
2019-04-05T11:59:17.959Z,26.57
2019-04-05T12:02:04.038Z,24.80
2019-04-05T12:04:32.279Z,28.98
2019-04-05T12:07:00.495Z,26.93
2019-04-05T12:09:28.730Z,29.27
2019-04-05T12:11:56.971Z,29.25
2019-04-05T12:14:30.414Z,26.45
2019-04-05T12:16:55.177Z,24.52
2019-04-05T12:19:23.416Z,29.85
2019-04-05T12:21:54.286Z,28.80
2019-04-05T12:24:22.598Z,31.73
2019-04-05T12:26:50.844Z,29.95
2019-04-05T12:29:19.080Z,31.15
2019-04-05T12:31:47.305Z,30.05
2019-04-05T12:34:15.533Z,28.38
2019-04-05T12:36:43.777Z,30.35
2019-04-05T12:39:12.010Z,29.87
2019-04-05T12:41:40.853Z,30.70
2019-04-05T12:44:14.312Z,28.60
2019-04-05T12:46:40.729Z,25.32
2019-04-05T12:49:08.961Z,27.98
2019-04-05T12:51:37.184Z,28.62
2019-04-05T12:54:05.431Z,26.02
2019-04-05T12:56:33.657Z,29.87
2019-04-05T12:59:02.134Z,25.37
2019-04-05T13:01:30.415Z,25.02
2019-04-05T13:03:58.864Z,27.10
2019-04-05T13:06:27.169Z,27.93
2019-04-05T13:08:55.396Z,29.07
2019-04-05T13:11:26.208Z,29.27
2019-04-05T13:13:54.383Z,27.22
2019-04-05T13:16:23.572Z,24.20
2019-04-05T13:18:51.910Z,24.07
2019-04-05T13:21:20.199Z,30.15
2019-04-05T13:23:48.402Z,28.15
2019-04-05T13:26:16.645Z,24.60
2019-04-05T13:28:46.492Z,29.57
2019-04-05T13:31:18.324Z,25.70
2019-04-05T13:33:44.925Z,27.02
2019-04-05T13:36:13.157Z,27.25
2019-04-05T13:38:53.955Z,27.25
2019-04-05T13:41:11.385Z,28.12
2019-04-05T13:43:39.602Z,31.82
2019-04-05T13:46:07.846Z,28.05
2019-04-05T13:48:37.619Z,29.23
2019-04-05T13:51:10.386Z,28.47
2019-04-05T13:53:40.202Z,27.50
2019-04-05T13:56:08.596Z,32.30
2019-04-05T13:58:37.636Z,31.55
2019-04-05T14:01:05.875Z,31.07
2019-04-05T14:03:34.106Z,32.00
2019-04-05T14:06:02.353Z,31.15
2019-04-05T14:08:30.609Z,30.65
2019-04-05T14:10:58.855Z,30.40
2019-04-05T14:13:27.085Z,28.17
2019-04-05T14:15:55.309Z,30.55
2019-04-05T14:18:23.573Z,32.28
2019-04-05T14:20:51.822Z,29.87
2019-04-05T14:23:22.996Z,26.50
2019-04-05T14:25:50.021Z,27.15
2019-04-05T14:28:18.262Z,26.37
2019-04-05T14:30:46.553Z,31.80
2019-04-05T14:33:14.817Z,28.12
2019-04-05T14:35:43.046Z,30.72
2019-04-05T14:38:11.829Z,28.02
2019-04-05T14:40:40.243Z,28.73
2019-04-05T14:43:08.548Z,29.65
2019-04-05T14:45:36.768Z,26.82
2019-04-05T14:48:05.085Z,30.12
2019-04-05T14:50:33.319Z,28.17
2019-04-05T14:53:02.016Z,27.73
2019-04-05T14:55:30.541Z,26.27
2019-04-05T14:57:59.015Z,28.20
2019-04-05T15:00:27.256Z,35.73
2019-04-05T15:02:55.528Z,26.95
2019-04-05T15:05:23.832Z,28.60
2019-04-05T15:07:54.906Z,30.72
2019-04-05T15:10:25.031Z,30.12
2019-04-05T15:12:52.187Z,29.05
2019-04-05T15:15:20.412Z,31.35
2019-04-05T15:17:48.666Z,30.12
2019-04-05T15:20:16.919Z,102.25
2019-04-05T15:22:45.199Z,44.48
2019-04-05T15:25:16.524Z,37.30
2019-04-05T15:27:43.487Z,85.10
2019-04-05T15:30:11.771Z,106.32
2019-04-05T15:32:40.334Z,43.58
2019-04-05T15:35:08.574Z,29.12
2019-04-05T15:37:37.686Z,30.57
2019-04-05T15:40:06.685Z,28.05
2019-04-05T15:42:34.917Z,34.40
2019-04-05T15:45:04.721Z,29.35
2019-04-05T15:47:32.946Z,113.52
2019-04-05T15:50:01.222Z,103.05
2019-04-05T15:52:31.997Z,78.40
2019-04-05T15:54:59.421Z,58.23
2019-04-05T15:57:27.657Z,330.20
2019-04-05T15:59:55.904Z,257.12
2019-04-05T16:02:24.248Z,54.15
2019-04-05T16:04:52.530Z,101.95
2019-04-05T16:07:20.807Z,96.25
2019-04-05T16:09:49.075Z,268.65
2019-04-05T16:12:17.317Z,132.87
2019-04-05T16:14:45.575Z,296.90
2019-04-05T16:17:13.824Z,341.57
2019-04-05T16:19:42.122Z,102.27
2019-04-05T16:22:10.401Z,59.70
2019-04-05T16:24:38.656Z,44.90
2019-04-05T16:27:06.901Z,57.35
2019-04-05T16:29:35.140Z,37.03
2019-04-05T16:32:03.364Z,65.78
2019-04-05T16:34:31.620Z,69.22
2019-04-05T16:36:59.848Z,49.90
2019-04-05T16:39:28.088Z,52.23
2019-04-05T16:41:56.377Z,47.58
2019-04-05T16:44:24.623Z,120.47
2019-04-05T16:46:52.857Z,75.12
2019-04-05T16:49:21.102Z,50.60
2019-04-05T16:51:49.371Z,39.98
2019-04-05T16:54:17.593Z,40.83
2019-04-05T16:56:45.945Z,39.78
2019-04-05T16:59:14.161Z,37.67
2019-04-05T17:01:42.437Z,37.55
2019-04-05T17:04:10.653Z,36.90
2019-04-05T17:06:38.889Z,37.30
2019-04-05T17:09:08.936Z,37.98
2019-04-05T17:11:37.169Z,49.15
2019-04-05T17:14:05.403Z,35.30
2019-04-05T17:16:33.754Z,37.15
2019-04-05T17:19:02.007Z,38.05
2019-04-05T17:21:30.319Z,37.55
2019-04-05T17:23:58.555Z,37.23
2019-04-05T17:26:26.785Z,35.50
2019-04-05T17:28:55.031Z,37.42
2019-04-05T17:31:23.301Z,38.45
2019-04-05T17:33:51.557Z,39.30
2019-04-05T17:36:19.773Z,48.50
2019-04-05T17:38:48.011Z,58.75
2019-04-05T17:41:16.250Z,57.45
2019-04-05T17:43:44.485Z,44.13
2019-04-05T17:46:12.708Z,43.60
2019-04-05T17:48:40.954Z,39.83
2019-04-05T17:51:09.196Z,46.30
2019-04-05T17:53:37.483Z,43.25
2019-04-05T17:56:05.751Z,42.05
2019-04-05T17:58:33.978Z,53.68
2019-04-05T18:01:02.290Z,52.53
2019-04-05T18:03:30.524Z,45.88
2019-04-05T18:05:58.801Z,38.30
2019-04-05T18:08:27.104Z,41.18
2019-04-05T18:10:55.869Z,41.95
2019-04-05T18:13:24.179Z,44.85
2019-04-05T18:15:53.157Z,49.53
2019-04-05T18:18:21.640Z,36.13
2019-04-05T18:20:49.886Z,41.48
2019-04-05T18:23:25.046Z,44.73
2019-04-05T18:25:48.085Z,46.65
2019-04-05T18:28:16.332Z,41.63
2019-04-05T18:30:44.561Z,40.08
2019-04-05T18:33:12.786Z,38.15
2019-04-05T18:35:41.064Z,45.63
2019-04-05T18:38:09.296Z,41.58
2019-04-05T18:40:40.277Z,39.90
2019-04-05T18:43:07.694Z,42.83
2019-04-05T18:45:36.891Z,42.00
2019-04-05T18:48:05.254Z,44.25
2019-04-05T18:50:33.592Z,50.08
2019-04-05T18:53:01.857Z,51.02
2019-04-05T18:55:30.228Z,44.23
2019-04-05T18:57:58.586Z,43.50
2019-04-05T19:00:27.153Z,47.58
2019-04-05T19:02:57.129Z,41.37
2019-04-05T19:05:26.477Z,47.05
2019-04-05T19:07:55.273Z,56.30
2019-04-05T19:10:36.246Z,43.65
2019-04-05T19:12:55.379Z,45.70
2019-04-05T19:15:25.016Z,43.95
2019-04-05T19:17:54.407Z,42.80
2019-04-05T19:20:24.281Z,47.62
2019-04-05T19:22:58.646Z,44.08
2019-04-05T19:25:28.425Z,45.83
2019-04-05T19:27:58.282Z,40.73
2019-04-05T19:50:40.197Z,46.42
2019-04-05T19:53:10.025Z,46.75
2019-04-05T19:55:42.119Z,49.25
2019-04-05T19:58:12.137Z,52.30
2019-04-05T20:00:42.149Z,44.48
2019-04-05T20:03:12.080Z,46.05
2019-04-05T20:05:42.733Z,48.48
2019-04-05T20:08:12.419Z,46.40
2019-04-05T20:10:42.306Z,45.28
2019-04-05T20:13:12.033Z,57.58
2019-04-05T20:15:41.908Z,52.65
2019-04-05T20:18:12.987Z,52.10
2019-04-05T20:20:43.129Z,49.80
2019-04-05T20:23:12.148Z,51.13
2019-04-05T20:25:41.037Z,48.75
2019-04-05T20:28:09.929Z,51.73
2019-04-05T20:30:38.597Z,47.50
2019-04-05T20:33:07.054Z,52.20
2019-04-05T20:35:35.530Z,55.20
2019-04-05T20:38:04.224Z,51.92
2019-04-05T20:40:32.556Z,50.33
2019-04-05T20:43:00.775Z,49.30
2019-04-05T20:45:29.049Z,53.30
2019-04-05T20:47:57.415Z,52.83
2019-04-05T20:50:25.662Z,53.65
2019-04-05T20:52:53.959Z,56.55
2019-04-05T20:55:22.186Z,54.23
2019-04-05T20:57:50.423Z,50.73
2019-04-05T21:00:18.740Z,49.10
2019-04-05T21:02:46.956Z,55.15
2019-04-05T21:05:24.805Z,54.70
2019-04-05T21:07:45.186Z,57.03
2019-04-05T21:10:13.400Z,49.73
2019-04-05T21:12:41.637Z,51.92
2019-04-05T21:15:09.932Z,49.23
2019-04-05T21:17:38.171Z,57.33
2019-04-05T21:20:06.754Z,54.30
2019-04-05T21:22:35.013Z,50.90
2019-04-05T21:25:03.835Z,53.05
2019-04-05T21:27:32.060Z,47.15
2019-04-05T21:30:00.288Z,50.12
2019-04-05T21:32:28.545Z,52.73
2019-04-05T21:34:56.788Z,47.30
2019-04-05T21:37:25.023Z,50.73
2019-04-05T21:39:53.262Z,50.05
2019-04-05T21:42:21.500Z,45.12
2019-04-05T21:44:49.744Z,48.98
2019-04-05T21:47:17.985Z,46.55
2019-04-05T21:49:46.217Z,52.80
2019-04-05T21:52:14.455Z,50.33
2019-04-05T21:54:47.520Z,52.55
2019-04-05T21:57:12.660Z,49.73
2019-04-05T21:59:40.906Z,45.15
2019-04-05T22:02:09.133Z,55.17
2019-04-05T22:04:37.369Z,53.73
2019-04-05T22:07:05.656Z,46.55
2019-04-05T22:09:33.886Z,52.53
2019-04-05T22:12:02.137Z,46.40
2019-04-05T22:14:30.417Z,52.83
2019-04-05T22:16:58.667Z,54.20
2019-04-05T22:19:26.893Z,52.50
2019-04-05T22:21:55.132Z,44.33
2019-04-05T22:24:23.364Z,54.35
2019-04-05T22:26:51.637Z,52.98
2019-04-05T22:29:19.857Z,49.58
2019-04-05T22:31:48.187Z,51.23
2019-04-05T22:34:16.411Z,49.85
2019-04-05T22:36:44.657Z,47.93
2019-04-05T22:39:12.880Z,49.65
2019-04-05T22:41:41.137Z,50.12
2019-04-05T22:44:09.363Z,51.18
2019-04-05T22:46:37.599Z,45.38
2019-04-05T22:49:05.830Z,45.33
2019-04-05T22:51:34.117Z,47.50
2019-04-05T22:54:02.496Z,49.53
2019-04-05T22:56:30.737Z,46.30
2019-04-05T22:58:58.981Z,48.35
2019-04-05T23:01:27.248Z,51.33
2019-04-05T23:03:55.505Z,45.78
2019-04-05T23:06:23.718Z,48.95
2019-04-05T23:08:51.956Z,48.85
2019-04-05T23:11:20.185Z,46.63
2019-04-05T23:13:48.439Z,47.58
2019-04-05T23:16:16.667Z,48.73
2019-04-05T23:18:44.900Z,43.25
2019-04-05T23:21:13.132Z,47.23
2019-04-05T23:23:41.431Z,51.90
2019-04-05T23:26:09.717Z,54.80
2019-04-05T23:28:37.963Z,50.38
2019-04-05T23:31:06.201Z,48.78
2019-04-05T23:33:34.461Z,53.42
2019-04-05T23:36:02.692Z,49.13
2019-04-05T23:38:30.990Z,51.20
2019-04-05T23:40:59.202Z,47.00
2019-04-05T23:43:27.449Z,47.88
2019-04-05T23:45:55.679Z,53.45
2019-04-05T23:48:23.900Z,54.27
2019-04-05T23:50:52.156Z,58.20
2019-04-05T23:53:20.377Z,50.80
2019-04-05T23:55:48.628Z,53.98
2019-04-05T23:58:16.877Z,43.45
